createdAt,value
2023-06-18T00:00:03.717Z,62
2023-06-18T00:01:00.637Z,62
2023-06-18T00:02:00.757Z,62
2023-06-18T00:03:00.643Z,62
2023-06-18T00:04:00.776Z,62
2023-06-18T00:05:03.236Z,62
2023-06-18T00:06:00.717Z,62
2023-06-18T00:07:00.649Z,62
2023-06-18T00:08:00.754Z,62
2023-06-18T00:09:00.658Z,62
2023-06-18T00:10:03.695Z,62
2023-06-18T00:11:00.681Z,62
2023-06-18T00:12:00.802Z,62
2023-06-18T00:13:00.707Z,62
2023-06-18T00:14:00.785Z,62
2023-06-18T00:15:03.458Z,62
2023-06-18T00:16:00.885Z,63
2023-06-18T00:17:00.720Z,63
2023-06-18T00:18:00.881Z,63
2023-06-18T00:19:00.751Z,63
2023-06-18T00:20:03.786Z,63
2023-06-18T00:21:00.770Z,63
2023-06-18T00:22:00.882Z,63
2023-06-18T00:23:00.761Z,63
2023-06-18T00:24:00.979Z,63
2023-06-18T00:25:04.391Z,63
2023-06-18T00:26:00.866Z,64
2023-06-18T00:27:00.821Z,64
2023-06-18T00:28:00.880Z,64
2023-06-18T00:29:00.797Z,64
2023-06-18T00:30:04.148Z,64
2023-06-18T00:31:00.876Z,64
2023-06-18T00:32:00.916Z,64
2023-06-18T00:33:00.860Z,64
2023-06-18T00:34:00.968Z,64
2023-06-18T00:35:04.175Z,64
2023-06-18T00:36:00.971Z,64
2023-06-18T00:37:00.860Z,64
2023-06-18T00:38:00.959Z,64
2023-06-18T00:39:00.884Z,64
2023-06-18T00:40:04.269Z,64
2023-06-18T00:41:00.884Z,64
2023-06-18T00:42:00.980Z,64
2023-06-18T00:43:00.901Z,64
2023-06-18T00:44:00.993Z,64
2023-06-18T00:45:04.406Z,64
2023-06-18T00:46:01.032Z,64
2023-06-18T00:47:00.979Z,64
2023-06-18T00:48:01.063Z,64
2023-06-18T00:49:00.956Z,64
2023-06-18T00:50:04.517Z,64
2023-06-18T00:51:01.002Z,64
2023-06-18T00:52:01.107Z,64
2023-06-18T00:53:01.156Z,64
2023-06-18T00:54:01.071Z,64
2023-06-18T00:55:03.995Z,64
2023-06-18T00:56:01.098Z,64
2023-06-18T00:57:01.036Z,64
2023-06-18T00:58:01.274Z,64
2023-06-18T00:59:01.040Z,64
2023-06-18T01:00:05.152Z,64
2023-06-18T01:01:01.058Z,64
2023-06-18T01:02:01.171Z,64
2023-06-18T01:03:02.129Z,64
2023-06-18T01:04:01.665Z,63
2023-06-18T01:05:03.778Z,63
2023-06-18T01:06:01.205Z,63
2023-06-18T01:07:01.087Z,63
2023-06-18T01:08:01.155Z,63
2023-06-18T01:09:01.123Z,63
2023-06-18T01:10:04.630Z,63
2023-06-18T01:11:01.109Z,63
2023-06-18T01:12:01.204Z,63
2023-06-18T01:13:01.122Z,63
2023-06-18T01:14:01.198Z,63
2023-06-18T01:15:03.775Z,63
2023-06-18T01:16:01.272Z,63
2023-06-18T01:17:01.303Z,63
2023-06-18T01:18:01.300Z,63
2023-06-18T01:19:01.144Z,63
2023-06-18T01:20:04.442Z,63
2023-06-18T01:21:00.188Z,63
2023-06-18T01:22:00.309Z,63
2023-06-18T01:23:00.215Z,63
2023-06-18T01:24:00.281Z,63
2023-06-18T01:25:03.199Z,63
2023-06-18T01:26:00.282Z,63
2023-06-18T01:27:00.241Z,63
2023-06-18T01:28:00.321Z,63
2023-06-18T01:29:00.505Z,63
2023-06-18T01:30:04.064Z,63
2023-06-18T01:31:00.252Z,63
2023-06-18T01:32:00.295Z,63
2023-06-18T01:33:00.300Z,63
2023-06-18T01:34:00.331Z,64
2023-06-18T01:35:03.382Z,64
2023-06-18T01:36:00.368Z,64
2023-06-18T01:37:00.282Z,64
2023-06-18T01:38:00.346Z,64
2023-06-18T01:39:00.324Z,64
2023-06-18T01:40:06.217Z,64
2023-06-18T01:41:00.290Z,64
2023-06-18T01:42:00.376Z,64
2023-06-18T01:43:00.295Z,64
2023-06-18T01:44:00.430Z,65
2023-06-18T01:45:02.857Z,65
2023-06-18T01:46:00.468Z,65
2023-06-18T01:47:00.350Z,65
2023-06-18T01:48:00.471Z,65
2023-06-18T01:49:00.355Z,65
2023-06-18T01:50:04.429Z,65
2023-06-18T01:51:00.365Z,65
2023-06-18T01:52:00.467Z,65
2023-06-18T01:53:00.391Z,65
2023-06-18T01:54:00.516Z,65
2023-06-18T01:55:03.454Z,65
2023-06-18T01:56:00.475Z,65
2023-06-18T01:57:00.395Z,64
2023-06-18T01:58:00.504Z,64
2023-06-18T01:59:00.402Z,64
2023-06-18T02:00:04.111Z,64
2023-06-18T02:01:00.449Z,64
2023-06-18T02:02:00.542Z,64
2023-06-18T02:03:00.591Z,64
2023-06-18T02:04:00.675Z,64
2023-06-18T02:05:03.072Z,64
2023-06-18T02:06:00.585Z,64
2023-06-18T02:07:00.497Z,64
2023-06-18T02:08:00.557Z,64
2023-06-18T02:09:00.543Z,64
2023-06-18T02:10:03.995Z,64
2023-06-18T02:11:00.522Z,64
2023-06-18T02:12:00.646Z,64
2023-06-18T02:13:00.548Z,64
2023-06-18T02:14:00.583Z,64
2023-06-18T02:15:03.717Z,64
2023-06-18T02:16:00.665Z,64
2023-06-18T02:17:00.582Z,64
2023-06-18T02:18:00.687Z,64
2023-06-18T02:19:00.564Z,64
2023-06-18T02:20:03.622Z,64
2023-06-18T02:21:00.634Z,64
2023-06-18T02:22:00.740Z,64
2023-06-18T02:23:00.617Z,65
2023-06-18T02:24:00.773Z,65
2023-06-18T02:25:03.986Z,65
2023-06-18T02:26:00.711Z,65
2023-06-18T02:27:00.678Z,64
2023-06-18T02:28:00.727Z,64
2023-06-18T02:29:00.669Z,64
2023-06-18T02:30:04.362Z,64
2023-06-18T02:31:00.673Z,64
2023-06-18T02:32:00.765Z,64
2023-06-18T02:33:00.761Z,64
2023-06-18T02:34:01.158Z,64
2023-06-18T02:35:04.010Z,64
2023-06-18T02:36:00.808Z,64
2023-06-18T02:37:00.724Z,64
2023-06-18T02:38:00.808Z,64
2023-06-18T02:39:00.779Z,64
2023-06-18T02:40:03.644Z,64
2023-06-18T02:41:00.743Z,64
2023-06-18T02:45:03.911Z,63
2023-06-18T02:46:00.874Z,63
2023-06-18T02:47:00.885Z,63
2023-06-18T02:48:00.949Z,63
2023-06-18T02:49:00.810Z,63
2023-06-18T02:50:03.876Z,63
2023-06-18T02:51:00.831Z,63
2023-06-18T02:52:00.922Z,63
2023-06-18T02:53:00.824Z,63
2023-06-18T02:54:00.911Z,63
2023-06-18T02:55:03.927Z,63
2023-06-18T02:56:00.946Z,63
2023-06-18T02:57:00.841Z,63
2023-06-18T02:58:01.365Z,63
2023-06-18T02:59:00.848Z,63
2023-06-18T03:00:03.976Z,64
2023-06-18T03:01:00.981Z,64
2023-06-18T03:02:00.962Z,64
2023-06-18T03:03:00.921Z,64
2023-06-18T03:04:00.999Z,64
2023-06-18T03:05:03.671Z,64
2023-06-18T03:06:01.019Z,64
2023-06-18T03:07:00.951Z,64
2023-06-18T03:08:01.015Z,63
2023-06-18T03:09:00.943Z,63
2023-06-18T03:10:04.200Z,63
2023-06-18T03:11:00.946Z,63
2023-06-18T03:12:01.078Z,63
2023-06-18T03:13:00.946Z,64
2023-06-18T03:14:01.048Z,64
2023-06-18T03:15:03.853Z,64
2023-06-18T03:16:01.059Z,64
2023-06-18T03:17:01.064Z,64
2023-06-18T03:18:01.089Z,64
2023-06-18T03:19:00.988Z,65
2023-06-18T03:20:04.271Z,65
2023-06-18T03:21:01.004Z,65
2023-06-18T03:22:01.105Z,65
2023-06-18T03:23:01.033Z,65
2023-06-18T03:24:01.145Z,65
2023-06-18T03:25:04.141Z,66
2023-06-18T03:26:01.111Z,66
2023-06-18T03:27:01.046Z,66
2023-06-18T03:28:01.162Z,66
2023-06-18T03:29:01.038Z,66
2023-06-18T03:30:05.500Z,66
2023-06-18T03:31:01.092Z,65
2023-06-18T03:32:01.189Z,65
2023-06-18T03:33:01.156Z,65
2023-06-18T03:34:01.198Z,65
2023-06-18T03:35:03.866Z,65
2023-06-18T03:36:01.269Z,64
2023-06-18T03:37:01.108Z,64
2023-06-18T03:38:01.177Z,64
2023-06-18T03:39:01.150Z,63
2023-06-18T03:40:04.225Z,63
2023-06-18T03:41:01.145Z,63
2023-06-18T03:42:01.247Z,63
2023-06-18T03:43:01.166Z,63
2023-06-18T03:44:02.919Z,62
2023-06-18T03:45:04.234Z,62
2023-06-18T03:46:01.327Z,62
2023-06-18T03:47:01.170Z,62
2023-06-18T03:48:01.385Z,62
2023-06-18T03:49:00.189Z,62
2023-06-18T03:50:03.575Z,62
2023-06-18T03:51:00.228Z,62
2023-06-18T03:52:00.358Z,62
2023-06-18T03:53:00.230Z,62
2023-06-18T03:54:00.321Z,62
2023-06-18T03:55:03.079Z,62
2023-06-18T03:56:00.305Z,62
2023-06-18T03:57:00.256Z,62
2023-06-18T03:58:00.338Z,63
2023-06-18T03:59:00.260Z,63
2023-06-18T04:00:03.403Z,63
2023-06-18T04:01:00.245Z,63
2023-06-18T04:02:00.420Z,63
2023-06-18T04:03:00.394Z,63
2023-06-18T04:04:00.585Z,63
2023-06-18T04:05:03.450Z,63
2023-06-18T04:06:00.376Z,63
2023-06-18T04:07:00.318Z,63
2023-06-18T04:08:00.405Z,63
2023-06-18T04:09:00.332Z,62
2023-06-18T04:10:03.818Z,62
2023-06-18T04:11:00.330Z,63
2023-06-18T04:12:00.405Z,63
2023-06-18T04:13:00.344Z,63
2023-06-18T04:14:00.429Z,63
2023-06-18T04:15:03.075Z,63
2023-06-18T04:18:00.546Z,63
2023-06-18T04:19:00.398Z,63
2023-06-18T04:20:04.110Z,63
2023-06-18T04:21:00.455Z,63
2023-06-18T04:22:00.505Z,63
2023-06-18T04:23:00.461Z,63
2023-06-18T04:24:00.562Z,63
2023-06-18T04:25:04.280Z,63
2023-06-18T04:26:00.510Z,63
2023-06-18T04:27:00.451Z,63
2023-06-18T04:28:00.526Z,63
2023-06-18T04:29:00.503Z,63
2023-06-18T04:30:03.655Z,63
2023-06-18T04:31:00.470Z,63
2023-06-18T04:32:00.580Z,63
2023-06-18T04:33:00.612Z,63
2023-06-18T04:34:00.616Z,63
2023-06-18T04:35:03.257Z,63
2023-06-18T04:36:00.566Z,63
2023-06-18T04:37:00.507Z,63
2023-06-18T04:38:00.572Z,63
2023-06-18T04:39:00.525Z,64
2023-06-18T04:40:04.098Z,64
2023-06-18T04:41:00.532Z,64
2023-06-18T04:42:00.638Z,64
2023-06-18T04:43:00.551Z,64
2023-06-18T04:45:08.200Z,64
2023-06-18T04:46:00.643Z,63
2023-06-18T04:47:00.608Z,63
2023-06-18T04:48:00.747Z,63
2023-06-18T04:49:00.584Z,63
2023-06-18T04:50:03.786Z,63
2023-06-18T04:51:00.616Z,63
2023-06-18T04:52:00.712Z,63
2023-06-18T04:53:00.607Z,63
2023-06-18T04:54:00.724Z,63
2023-06-18T04:55:03.667Z,63
2023-06-18T04:56:00.688Z,63
2023-06-18T04:57:00.667Z,63
2023-06-18T04:58:00.727Z,63
2023-06-18T04:59:00.628Z,63
2023-06-18T05:00:04.509Z,62
2023-06-18T05:01:00.658Z,62
2023-06-18T05:02:00.719Z,62
2023-06-18T05:03:00.749Z,62
2023-06-18T05:04:00.906Z,61
2023-06-18T05:05:03.369Z,61
2023-06-18T05:06:00.766Z,61
2023-06-18T05:07:00.687Z,61
2023-06-18T05:08:00.763Z,61
2023-06-18T05:09:00.733Z,60
2023-06-18T05:10:03.903Z,60
2023-06-18T05:11:00.710Z,60
2023-06-18T05:12:00.818Z,60
2023-06-18T05:13:00.715Z,60
2023-06-18T05:14:00.803Z,59
2023-06-18T05:15:03.866Z,59
2023-06-18T05:16:00.824Z,59
2023-06-18T05:17:00.844Z,59
2023-06-18T05:18:00.887Z,59
2023-06-18T05:19:00.766Z,59
2023-06-18T05:20:05.526Z,59
2023-06-18T05:21:00.814Z,59
2023-06-18T05:22:00.917Z,59
2023-06-18T05:23:00.812Z,59
2023-06-18T05:24:00.920Z,59
2023-06-18T05:25:03.409Z,60
2023-06-18T05:26:00.952Z,60
2023-06-18T05:27:00.829Z,60
2023-06-18T05:28:00.923Z,60
2023-06-18T05:29:00.840Z,60
2023-06-18T05:30:03.902Z,60
2023-06-18T05:31:00.853Z,60
2023-06-18T05:32:00.968Z,59
2023-06-18T05:33:00.888Z,59
2023-06-18T05:34:00.963Z,59
2023-06-18T05:35:03.450Z,59
2023-06-18T05:36:00.980Z,59
2023-06-18T05:37:00.892Z,59
2023-06-18T05:38:01.000Z,59
2023-06-18T05:39:00.940Z,58
2023-06-18T05:40:07.596Z,58
2023-06-18T05:41:00.900Z,58
2023-06-18T05:42:01.010Z,58
2023-06-18T05:43:00.945Z,58
2023-06-18T05:44:01.010Z,58
2023-06-18T05:45:04.075Z,58
2023-06-18T05:46:01.041Z,58
2023-06-18T05:47:00.986Z,58
2023-06-18T05:48:01.053Z,58
2023-06-18T05:49:00.976Z,57
2023-06-18T05:50:04.548Z,57
2023-06-18T05:51:01.016Z,57
2023-06-18T05:52:01.068Z,56
2023-06-18T05:53:01.016Z,56
2023-06-18T05:54:01.135Z,56
2023-06-18T05:55:03.577Z,56
2023-06-18T05:56:01.130Z,56
2023-06-18T05:57:01.042Z,56
2023-06-18T05:58:01.106Z,56
2023-06-18T05:59:01.040Z,56
2023-06-18T06:00:04.065Z,56
2023-06-18T06:01:01.062Z,56
2023-06-18T06:02:01.239Z,56
2023-06-18T06:03:01.107Z,56
2023-06-18T06:04:01.171Z,56
2023-06-18T06:05:03.745Z,56
2023-06-18T06:06:01.184Z,56
2023-06-18T06:07:01.092Z,56
2023-06-18T06:08:01.191Z,56
2023-06-18T06:09:01.123Z,56
2023-06-18T06:10:04.897Z,55
2023-06-18T06:11:01.110Z,55
2023-06-18T06:12:01.269Z,55
2023-06-18T06:13:01.154Z,55
2023-06-18T06:14:01.234Z,55
2023-06-18T06:15:05.264Z,55
2023-06-18T06:16:01.242Z,55
2023-06-18T06:17:01.177Z,55
2023-06-18T06:18:01.372Z,55
2023-06-18T06:19:00.162Z,55
2023-06-18T06:20:02.986Z,55
2023-06-18T06:21:00.185Z,55
2023-06-18T06:22:00.294Z,55
2023-06-18T06:23:00.186Z,55
2023-06-18T06:24:00.378Z,55
2023-06-18T06:25:03.041Z,55
2023-06-18T06:26:00.318Z,55
2023-06-18T06:27:00.254Z,55
2023-06-18T06:28:00.297Z,54
2023-06-18T06:29:00.230Z,54
2023-06-18T06:30:03.786Z,54
2023-06-18T06:31:00.242Z,53
2023-06-18T06:32:00.352Z,53
2023-06-18T06:33:00.310Z,53
2023-06-18T06:34:00.358Z,53
2023-06-18T06:35:02.944Z,53
2023-06-18T06:36:00.375Z,53
2023-06-18T06:37:00.314Z,53
2023-06-18T06:38:00.413Z,53
2023-06-18T06:39:00.316Z,53
2023-06-18T06:40:03.530Z,53
2023-06-18T06:41:00.328Z,53
2023-06-18T06:42:00.435Z,53
2023-06-18T06:43:00.344Z,53
2023-06-18T06:44:00.429Z,53
2023-06-18T06:45:03.108Z,53
2023-06-18T06:46:00.510Z,52
2023-06-18T06:47:00.347Z,52
2023-06-18T06:48:00.482Z,52
2023-06-18T06:49:00.373Z,52
2023-06-18T06:50:04.577Z,52
2023-06-18T06:51:00.415Z,52
2023-06-18T06:52:00.450Z,52
2023-06-18T06:53:00.426Z,51
2023-06-18T06:54:00.504Z,51
2023-06-18T06:55:03.063Z,51
2023-06-18T06:56:00.491Z,50
2023-06-18T06:57:00.410Z,50
2023-06-18T06:58:00.503Z,49
2023-06-18T06:59:00.449Z,49
2023-06-18T07:00:04.339Z,49
2023-06-18T07:01:00.459Z,50
2023-06-18T07:02:00.641Z,50
2023-06-18T07:03:00.525Z,48
2023-06-18T07:04:00.544Z,48
2023-06-18T07:05:05.582Z,48
2023-06-18T07:06:00.550Z,48
2023-06-18T07:07:00.466Z,48
2023-06-18T07:08:00.594Z,47
2023-06-18T07:09:00.525Z,47
2023-06-18T07:10:05.532Z,47
2023-06-18T07:11:00.504Z,47
2023-06-18T07:12:00.596Z,47
2023-06-18T07:13:00.514Z,48
2023-06-18T07:14:00.813Z,48
2023-06-18T07:15:03.414Z,48
2023-06-18T07:16:00.624Z,48
2023-06-18T07:17:00.589Z,48
2023-06-18T07:18:00.721Z,47
2023-06-18T07:19:00.554Z,47
2023-06-18T07:20:04.513Z,47
2023-06-18T07:21:00.567Z,47
2023-06-18T07:22:00.669Z,47
2023-06-18T07:23:00.578Z,46
2023-06-18T07:24:00.704Z,46
2023-06-18T07:25:03.257Z,46
2023-06-18T07:26:00.695Z,44
2023-06-18T07:27:00.630Z,44
2023-06-18T07:28:00.657Z,45
2023-06-18T07:29:00.599Z,45
2023-06-18T07:30:04.452Z,46
2023-06-18T07:31:00.621Z,46
2023-06-18T07:32:00.737Z,46
2023-06-18T07:33:00.664Z,45
2023-06-18T07:34:00.708Z,45
2023-06-18T07:35:03.223Z,45
2023-06-18T07:36:00.780Z,44
2023-06-18T07:37:00.634Z,44
2023-06-18T07:38:00.752Z,44
2023-06-18T07:39:00.707Z,43
2023-06-18T07:40:04.193Z,43
2023-06-18T07:41:00.677Z,43
2023-06-18T07:42:00.782Z,43
2023-06-18T07:43:00.680Z,42
2023-06-18T07:44:00.763Z,42
2023-06-18T07:45:03.429Z,42
2023-06-18T07:46:00.829Z,43
2023-06-18T07:47:00.704Z,43
2023-06-18T07:48:00.842Z,43
2023-06-18T07:49:00.709Z,43
2023-06-18T07:50:06.427Z,43
2023-06-18T07:51:00.771Z,42
2023-06-18T07:52:00.801Z,42
2023-06-18T07:53:00.737Z,41
2023-06-18T07:54:00.982Z,41
2023-06-18T07:55:03.485Z,41
2023-06-18T07:56:00.899Z,42
2023-06-18T07:57:00.817Z,42
2023-06-18T07:58:00.827Z,42
2023-06-18T07:59:00.796Z,41
2023-06-18T08:00:04.352Z,41
2023-06-18T08:01:00.781Z,41
2023-06-18T08:02:00.971Z,39
2023-06-18T08:03:00.906Z,39
2023-06-18T08:04:00.921Z,39
2023-06-18T08:05:04.652Z,39
2023-06-18T08:06:00.916Z,39
2023-06-18T08:07:00.880Z,39
2023-06-18T08:08:00.932Z,39
2023-06-18T08:09:00.875Z,38
2023-06-18T08:10:04.386Z,38
2023-06-18T08:11:00.883Z,38
2023-06-18T08:12:00.985Z,38
2023-06-18T08:13:00.876Z,38
2023-06-18T08:14:00.954Z,38
2023-06-18T08:15:04.239Z,38
2023-06-18T08:16:01.129Z,38
2023-06-18T08:17:00.895Z,38
2023-06-18T08:18:01.087Z,38
2023-06-18T08:19:00.969Z,38
2023-06-18T08:20:04.688Z,38
2023-06-18T08:21:00.942Z,38
2023-06-18T08:22:01.010Z,37
2023-06-18T08:23:00.946Z,37
2023-06-18T08:24:01.032Z,37
2023-06-18T08:25:04.094Z,37
2023-06-18T08:26:01.040Z,37
2023-06-18T08:27:00.980Z,37
2023-06-18T08:28:01.072Z,37
2023-06-18T08:29:00.993Z,37
2023-06-18T08:30:04.874Z,36
2023-06-18T08:31:00.996Z,36
2023-06-18T08:32:01.123Z,36
2023-06-18T08:33:01.048Z,36
2023-06-18T08:34:01.105Z,36
2023-06-18T08:35:03.785Z,36
2023-06-18T08:36:01.140Z,36
2023-06-18T08:37:01.034Z,36
2023-06-18T08:38:01.129Z,36
2023-06-18T08:39:01.037Z,36
2023-06-18T08:40:04.177Z,36
2023-06-18T08:41:01.058Z,36
2023-06-18T08:42:01.136Z,35
2023-06-18T08:43:07.209Z,35
2023-06-18T08:44:01.204Z,35
2023-06-18T08:45:03.691Z,35
2023-06-18T08:46:01.164Z,35
2023-06-18T08:47:01.103Z,35
2023-06-18T08:48:04.621Z,35
2023-06-18T08:49:01.114Z,34
2023-06-18T08:50:04.386Z,34
2023-06-18T08:51:01.106Z,34
2023-06-18T08:52:01.208Z,34
2023-06-18T08:53:01.117Z,34
2023-06-18T08:54:01.191Z,34
2023-06-18T08:55:04.184Z,34
2023-06-18T08:56:01.254Z,34
2023-06-18T08:57:01.149Z,33
2023-06-18T08:58:01.241Z,33
2023-06-18T08:59:01.159Z,33
2023-06-18T09:00:07.536Z,33
2023-06-18T09:01:00.191Z,33
2023-06-18T09:02:00.273Z,33
2023-06-18T09:03:00.310Z,33
2023-06-18T09:04:00.281Z,33
2023-06-18T09:05:03.071Z,33
2023-06-18T09:06:00.315Z,33
2023-06-18T09:07:00.233Z,31
2023-06-18T09:08:00.365Z,31
2023-06-18T09:09:00.253Z,31
2023-06-18T09:10:03.780Z,31
2023-06-18T09:11:00.256Z,31
2023-06-18T09:12:00.324Z,30
2023-06-18T09:13:00.273Z,30
2023-06-18T09:14:00.344Z,31
2023-06-18T09:15:03.200Z,31
2023-06-18T09:16:00.345Z,31
2023-06-18T09:17:00.337Z,31
2023-06-18T09:18:00.367Z,31
2023-06-18T09:19:03.157Z,30
2023-06-18T09:20:03.694Z,30
2023-06-18T09:21:00.308Z,30
2023-06-18T09:22:00.445Z,30
2023-06-18T09:23:00.313Z,30
2023-06-18T09:24:00.515Z,30
2023-06-18T09:25:02.937Z,30
2023-06-18T09:26:00.441Z,30
2023-06-18T09:27:00.408Z,30
2023-06-18T09:28:00.459Z,29
2023-06-18T09:29:00.349Z,29
2023-06-18T09:30:03.512Z,29
2023-06-18T09:31:00.408Z,29
2023-06-18T09:32:00.518Z,29
2023-06-18T09:33:00.437Z,29
2023-06-18T09:34:00.515Z,29
2023-06-18T09:35:03.222Z,28
2023-06-18T09:36:00.512Z,28
2023-06-18T09:37:00.436Z,27
2023-06-18T09:38:00.587Z,27
2023-06-18T09:39:00.448Z,27
2023-06-18T09:40:04.113Z,27
2023-06-18T09:41:00.482Z,27
2023-06-18T09:42:00.591Z,27
2023-06-18T09:43:00.490Z,27
2023-06-18T09:44:00.599Z,27
2023-06-18T09:45:03.438Z,27
2023-06-18T09:46:00.598Z,27
2023-06-18T09:47:00.515Z,27
2023-06-18T09:48:00.654Z,27
2023-06-18T09:49:00.557Z,27
2023-06-18T09:50:04.627Z,28
2023-06-18T09:51:00.564Z,28
2023-06-18T09:52:00.592Z,28
2023-06-18T09:53:00.550Z,28
2023-06-18T09:54:00.670Z,28
2023-06-18T09:55:03.842Z,29
2023-06-18T09:56:00.692Z,29
2023-06-18T09:57:00.641Z,29
2023-06-18T09:58:00.675Z,29
2023-06-18T09:59:00.621Z,29
2023-06-18T10:00:04.188Z,28
2023-06-18T10:01:00.624Z,28
2023-06-18T10:02:00.802Z,28
2023-06-18T10:03:00.741Z,27
2023-06-18T10:04:00.780Z,27
2023-06-18T10:05:04.006Z,27
2023-06-18T10:06:00.797Z,27
2023-06-18T10:07:00.684Z,27
2023-06-18T10:08:00.840Z,27
2023-06-18T10:09:00.701Z,27
2023-06-18T10:10:04.268Z,27
2023-06-18T10:11:00.707Z,27
2023-06-18T10:12:00.836Z,27
2023-06-18T10:13:00.747Z,28
2023-06-18T10:14:02.515Z,28
2023-06-18T10:15:04.106Z,27
2023-06-18T10:16:00.924Z,27
2023-06-18T10:17:00.766Z,28
2023-06-18T10:18:00.918Z,28
2023-06-18T10:19:00.761Z,28
2023-06-18T10:20:05.173Z,27
2023-06-18T10:21:00.827Z,27
2023-06-18T10:22:00.848Z,27
2023-06-18T10:23:00.823Z,28
2023-06-18T10:24:00.925Z,28
2023-06-18T10:25:03.331Z,28
2023-06-18T10:26:00.938Z,28
2023-06-18T10:27:00.820Z,27
2023-06-18T10:28:00.898Z,27
2023-06-18T10:29:00.829Z,27
2023-06-18T10:30:04.238Z,27
2023-06-18T10:31:00.877Z,27
2023-06-18T10:32:00.954Z,27
2023-06-18T10:33:00.902Z,26
2023-06-18T10:34:00.962Z,26
2023-06-18T10:35:03.641Z,27
2023-06-18T10:36:00.938Z,27
2023-06-18T10:37:00.914Z,27
2023-06-18T10:38:01.010Z,27
2023-06-18T10:39:00.905Z,27
2023-06-18T10:40:04.012Z,27
2023-06-18T10:41:00.933Z,28
2023-06-18T10:42:01.910Z,28
2023-06-18T10:46:01.047Z,26
2023-06-18T10:47:01.016Z,26
2023-06-18T10:48:01.136Z,27
2023-06-18T10:49:01.006Z,27
2023-06-18T10:53:01.135Z,26
2023-06-18T10:54:01.222Z,26
2023-06-18T10:55:04.922Z,26
2023-06-18T10:56:01.141Z,26
2023-06-18T10:57:01.062Z,26
2023-06-18T10:58:01.194Z,26
2023-06-18T10:59:01.110Z,25
2023-06-18T11:00:04.344Z,25
2023-06-18T11:01:01.124Z,26
2023-06-18T11:02:01.222Z,26
2023-06-18T11:03:01.237Z,26
2023-06-18T11:04:01.181Z,25
2023-06-18T11:05:03.677Z,25
2023-06-18T11:06:01.267Z,25
2023-06-18T11:07:01.126Z,26
2023-06-18T11:08:01.223Z,26
2023-06-18T11:09:01.178Z,27
2023-06-18T11:10:04.369Z,27
2023-06-18T11:11:01.151Z,26
2023-06-18T11:12:01.276Z,26
2023-06-18T11:13:00.196Z,27
2023-06-18T11:14:00.286Z,27
2023-06-18T11:15:03.346Z,27
2023-06-18T11:16:00.280Z,26
2023-06-18T11:17:00.207Z,26
2023-06-18T11:18:00.330Z,26
2023-06-18T11:19:00.251Z,27
2023-06-18T11:20:03.441Z,27
2023-06-18T11:21:00.267Z,26
2023-06-18T11:22:00.282Z,26
2023-06-18T11:23:00.230Z,26
2023-06-18T11:24:00.365Z,26
2023-06-18T11:25:03.394Z,26
2023-06-18T11:26:00.489Z,26
2023-06-18T11:27:00.296Z,26
2023-06-18T11:28:00.335Z,26
2023-06-18T11:29:00.280Z,25
2023-06-18T11:30:04.349Z,25
2023-06-18T11:31:00.502Z,25
2023-06-18T11:32:00.382Z,26
2023-06-18T11:33:00.351Z,26
2023-06-18T11:34:00.376Z,25
2023-06-18T11:35:03.471Z,25
2023-06-18T11:36:00.416Z,25
2023-06-18T11:37:00.324Z,25
2023-06-18T11:38:00.443Z,25
2023-06-18T11:39:00.348Z,25
2023-06-18T11:40:03.272Z,25
2023-06-18T11:41:00.366Z,25
2023-06-18T11:42:00.443Z,25
2023-06-18T11:43:00.430Z,25
2023-06-18T11:44:00.496Z,25
2023-06-18T11:45:03.675Z,25
2023-06-18T11:46:00.564Z,24
2023-06-18T11:47:00.433Z,24
2023-06-18T11:48:00.552Z,24
2023-06-18T11:49:00.812Z,24
2023-06-18T11:50:04.610Z,24
2023-06-18T11:51:00.440Z,24
2023-06-18T11:52:00.507Z,24
2023-06-18T11:53:00.452Z,24
2023-06-18T11:54:00.520Z,24
2023-06-18T11:55:05.115Z,24
2023-06-18T11:56:00.550Z,24
2023-06-18T11:57:00.474Z,24
2023-06-18T11:58:00.565Z,24
2023-06-18T11:59:00.487Z,24
2023-06-18T12:00:05.236Z,24
2023-06-18T12:01:00.539Z,23
2023-06-18T12:02:00.657Z,23
2023-06-18T12:03:00.546Z,23
2023-06-18T12:04:00.646Z,24
2023-06-18T12:05:03.962Z,24
2023-06-18T12:06:00.622Z,24
2023-06-18T12:07:00.565Z,24
2023-06-18T12:08:00.667Z,24
2023-06-18T12:09:00.572Z,24
2023-06-18T12:10:03.900Z,24
2023-06-18T12:11:00.557Z,24
2023-06-18T12:12:00.685Z,24
2023-06-18T12:13:00.594Z,24
2023-06-18T12:14:00.665Z,25
2023-06-18T12:15:03.841Z,25
2023-06-18T12:16:00.717Z,25
2023-06-18T12:17:00.666Z,24
2023-06-18T12:18:00.804Z,24
2023-06-18T12:19:00.611Z,25
2023-06-18T12:20:04.268Z,25
2023-06-18T12:21:00.654Z,25
2023-06-18T12:22:00.719Z,25
2023-06-18T12:23:00.670Z,25
2023-06-18T12:24:00.825Z,25
2023-06-18T12:25:05.251Z,25
2023-06-18T12:26:00.735Z,25
2023-06-18T12:27:00.730Z,25
2023-06-18T12:28:03.450Z,25
2023-06-18T12:29:00.735Z,25
2023-06-18T12:30:04.174Z,25
2023-06-18T12:31:00.937Z,25
2023-06-18T12:32:00.811Z,25
2023-06-18T12:33:00.890Z,25
2023-06-18T12:34:00.958Z,25
2023-06-18T12:35:03.418Z,25
2023-06-18T12:36:00.881Z,25
2023-06-18T12:37:00.846Z,26
2023-06-18T12:38:00.837Z,26
2023-06-18T12:39:00.802Z,26
2023-06-18T12:40:05.651Z,25
2023-06-18T12:41:00.824Z,25
2023-06-18T12:42:00.902Z,26
2023-06-18T12:43:00.878Z,26
2023-06-18T12:44:00.932Z,26
2023-06-18T12:45:03.696Z,25
2023-06-18T12:46:00.975Z,25
2023-06-18T12:47:00.866Z,25
2023-06-18T12:48:01.108Z,25
2023-06-18T12:49:00.924Z,25
2023-06-18T12:50:04.184Z,25
2023-06-18T12:51:00.907Z,25
2023-06-18T12:52:00.973Z,25
2023-06-18T12:53:00.882Z,25
2023-06-18T12:54:01.019Z,26
2023-06-18T12:55:03.524Z,26
2023-06-18T12:56:01.002Z,26
2023-06-18T12:57:00.948Z,25
2023-06-18T12:58:00.995Z,25
2023-06-18T12:59:00.928Z,25
2023-06-18T13:00:04.854Z,25
2023-06-18T13:01:00.976Z,25
2023-06-18T13:02:01.028Z,25
2023-06-18T13:03:01.138Z,25
2023-06-18T13:04:01.057Z,25
2023-06-18T13:05:03.656Z,25
2023-06-18T13:06:01.144Z,25
2023-06-18T13:07:00.994Z,25
2023-06-18T13:08:01.103Z,25
2023-06-18T13:09:01.026Z,25
2023-06-18T13:10:04.143Z,25
2023-06-18T13:11:00.994Z,25
2023-06-18T13:12:01.205Z,25
2023-06-18T13:13:01.030Z,25
2023-06-18T13:14:01.105Z,25
2023-06-18T13:15:03.820Z,26
2023-06-18T13:16:01.157Z,26
2023-06-18T13:17:01.126Z,26
2023-06-18T13:18:01.171Z,26
2023-06-18T13:19:01.052Z,26
2023-06-18T13:20:04.696Z,26
2023-06-18T13:21:01.118Z,26
2023-06-18T13:22:01.161Z,26
2023-06-18T13:23:01.106Z,26
2023-06-18T13:24:01.236Z,26
2023-06-18T13:25:04.269Z,25
2023-06-18T13:26:01.175Z,25
2023-06-18T13:27:01.126Z,25
2023-06-18T13:28:02.962Z,25
2023-06-18T13:29:01.117Z,25
2023-06-18T13:30:04.450Z,25
2023-06-18T13:31:01.181Z,25
2023-06-18T13:32:01.213Z,25
2023-06-18T13:33:01.227Z,26
2023-06-18T13:34:01.211Z,26
2023-06-18T13:35:04.625Z,27
2023-06-18T13:36:01.330Z,27
2023-06-18T13:37:00.180Z,27
2023-06-18T13:38:00.268Z,27
2023-06-18T13:39:00.196Z,27
2023-06-18T13:40:03.600Z,27
2023-06-18T13:41:00.213Z,27
2023-06-18T13:42:00.309Z,27
2023-06-18T13:43:00.265Z,29
2023-06-18T13:44:00.286Z,29
2023-06-18T13:45:03.172Z,29
2023-06-18T13:46:00.401Z,29
2023-06-18T13:47:00.251Z,29
2023-06-18T13:48:00.441Z,28
2023-06-18T13:49:00.257Z,28
2023-06-18T13:50:04.639Z,27
2023-06-18T13:51:00.276Z,27
2023-06-18T13:52:00.338Z,27
2023-06-18T13:53:00.302Z,27
2023-06-18T13:54:00.404Z,27
2023-06-18T13:55:03.062Z,27
2023-06-18T13:56:00.377Z,28
2023-06-18T13:57:00.302Z,28
2023-06-18T13:58:00.365Z,27
2023-06-18T13:59:00.326Z,27
2023-06-18T14:00:04.954Z,28
2023-06-18T14:01:00.366Z,28
2023-06-18T14:02:00.478Z,28
2023-06-18T14:03:00.477Z,28
2023-06-18T14:04:00.590Z,28
2023-06-18T14:05:03.306Z,28
2023-06-18T14:06:00.477Z,28
2023-06-18T14:07:00.416Z,28
2023-06-18T14:08:00.485Z,28
2023-06-18T14:09:00.405Z,28
2023-06-18T14:10:04.237Z,28
2023-06-18T14:11:00.443Z,28
2023-06-18T14:12:00.511Z,28
2023-06-18T14:13:00.465Z,28
2023-06-18T14:14:00.547Z,28
2023-06-18T14:15:03.143Z,28
2023-06-18T14:16:00.627Z,28
2023-06-18T14:17:00.493Z,28
2023-06-18T14:18:00.581Z,28
2023-06-18T14:19:00.527Z,28
2023-06-18T14:20:03.794Z,28
2023-06-18T14:21:00.544Z,28
2023-06-18T14:22:00.606Z,28
2023-06-18T14:23:00.544Z,27
2023-06-18T14:24:00.625Z,27
2023-06-18T14:25:03.676Z,27
2023-06-18T14:26:00.621Z,28
2023-06-18T14:27:00.526Z,28